Kilkenny, Ireland

2:29 AM GMT on March 06, 2015 (GMT +0000)
Kilkenny | Change Station
CLOSE
Current Station
Personal Weather Station
Location: Kilkenny City, Co. Kilkenny
Elevation: 160 ft
Nearby Weather Stations

Elev 160 ft 52.66 °N, 7.25 °W | Updated 7 minutes ago

Mostly Cloudy
Mostly Cloudy
47.7 °F
Feels Like 46 °F
N
5.0
Wind Variable Wind from SW
Gusts 16.0 mph

Today
High -- | Low -- °F
--% Chance of Precip.
Yesterday
High -- | Low -- °F
Precip. -- in
7:05 AM 6:16 PM
Full, 100% visible
Pressure 30.42 in
Visibility 6.2 miles
Clouds Mostly Cloudy 3600 ft
Windchill 46 °F
Dew Point 33 °F
Humidity 64%
Rainfall in
Snow Depth Not available.
UV 0 out of 12
Pollen Not available.
Air Quality Not available.
Flu Activity Not available.
METAR EIME 060200Z 22015KT 9999 BKN036 08/03 Q1030

More Conditions Fewer Conditions

Pressure 30.42 in
Visibility 6.2 miles
Clouds Mostly Cloudy 3600 ft
Windchill 46 °F
Dew Point 33 °F
Humidity 64%
Rainfall in
Snow Depth Not available.
UV 0 out of 12
Pollen Not available.
Air Quality Not available.
Flu Activity Not available.
METAR EIME 060200Z 22015KT 9999 BKN036 08/03 Q1030

More Conditions Fewer Conditions

10-Day Weather Forecast

Almanac

Astronomy

Mar. 06, 2015 Rise Set
Actual Time
Civil Twilight
Nautical Twilight
Astronomical Twilight
Moon
Length of Visible Light
Length of Day
Tomorrow will be .
, % of the Moon is Illuminated

Today's Extremes

Country Highs Country Lows

Community

WunderPhotos

Upload Photos

1,803,113 photos uploaded!

WunderBlogs® & News

Nearby

Air Quality

  Air Quality AQ Index Pollutant
Not available.

Snow Depth

Station Depth Elevation

Earthquake Activity

City Distance Mag. Time & Date
Minimum magnitude displayed is 2.5.

Coastal Water Temperatures

Place Temperature

Nearby Weather Stations